createdAt,value
2018-09-02T00:00:17.142Z,12.80
2018-09-02T00:02:45.549Z,12.80
2018-09-02T00:05:14.027Z,12.80
2018-09-02T00:07:42.423Z,12.80
2018-09-02T00:10:10.853Z,12.80
2018-09-02T00:12:39.275Z,12.70
2018-09-02T00:15:07.827Z,12.70
2018-09-02T00:17:36.223Z,12.70
2018-09-02T00:20:04.801Z,12.70
2018-09-02T00:22:33.208Z,12.70
2018-09-02T00:25:01.663Z,12.60
2018-09-02T00:27:30.080Z,12.60
2018-09-02T00:29:58.512Z,12.50
2018-09-02T00:32:26.919Z,12.60
2018-09-02T00:34:55.328Z,12.50
2018-09-02T00:37:23.736Z,12.40
2018-09-02T00:39:52.139Z,12.40
2018-09-02T00:42:20.555Z,12.40
2018-09-02T00:44:48.979Z,12.50
2018-09-02T00:47:17.364Z,12.50
2018-09-02T00:49:45.771Z,12.50
2018-09-02T00:52:14.196Z,12.50
2018-09-02T00:54:42.643Z,12.50
2018-09-02T00:57:11.082Z,12.50
2018-09-02T00:59:40.721Z,12.50
2018-09-02T01:02:09.152Z,12.40
2018-09-02T01:04:37.567Z,12.40
2018-09-02T01:07:06.417Z,12.40
2018-09-02T01:09:34.850Z,12.40
2018-09-02T01:12:03.232Z,12.40
2018-09-02T01:14:31.662Z,12.40
2018-09-02T01:17:00.068Z,12.40
2018-09-02T01:19:28.723Z,12.40
2018-09-02T01:21:57.117Z,12.40
2018-09-02T01:24:25.548Z,12.40
2018-09-02T01:26:53.958Z,12.40
2018-09-02T01:29:22.358Z,12.30
2018-09-02T01:31:50.740Z,12.30
2018-09-02T01:34:19.148Z,12.30
2018-09-02T01:36:47.579Z,12.30
2018-09-02T01:39:16.059Z,12.30
2018-09-02T01:41:45.272Z,12.30
2018-09-02T01:44:13.671Z,12.30
2018-09-02T01:46:42.074Z,12.30
2018-09-02T01:49:10.489Z,12.30
2018-09-02T01:51:38.875Z,12.20
2018-09-02T01:54:07.259Z,12.20
2018-09-02T01:56:35.684Z,12.10
2018-09-02T01:59:04.514Z,12.10
2018-09-02T02:01:32.989Z,12.10
2018-09-02T02:04:01.385Z,12.00
2018-09-02T02:06:29.799Z,11.80
2018-09-02T02:08:58.237Z,11.70
2018-09-02T02:11:26.677Z,11.50
2018-09-02T02:13:55.097Z,11.50
2018-09-02T02:16:23.508Z,11.40
2018-09-02T02:18:51.902Z,11.30
2018-09-02T02:21:20.316Z,11.30
2018-09-02T02:23:48.743Z,11.30
2018-09-02T02:26:17.558Z,11.40
2018-09-02T02:28:45.928Z,11.30
2018-09-02T02:31:14.322Z,11.30
2018-09-02T02:33:42.792Z,11.30
2018-09-02T02:36:11.228Z,11.30
2018-09-02T02:38:39.639Z,11.20
2018-09-02T02:41:08.041Z,11.10
2018-09-02T02:43:36.432Z,11.00
2018-09-02T02:46:04.868Z,10.90
2018-09-02T02:48:33.252Z,10.90
2018-09-02T02:51:01.654Z,10.70
2018-09-02T02:53:30.056Z,10.60
2018-09-02T02:55:58.523Z,10.50
2018-09-02T02:58:26.908Z,10.50
2018-09-02T03:00:55.316Z,10.50
2018-09-02T03:03:23.704Z,10.40
2018-09-02T03:05:52.127Z,10.40
2018-09-02T03:08:20.517Z,10.40
2018-09-02T03:10:48.960Z,10.40
2018-09-02T03:13:17.314Z,10.40
2018-09-02T03:15:45.728Z,10.30
2018-09-02T03:18:14.100Z,10.20
2018-09-02T03:20:42.496Z,10.30
2018-09-02T03:23:10.982Z,10.30
2018-09-02T03:25:40.040Z,10.30
2018-09-02T03:28:08.435Z,10.30
2018-09-02T03:30:36.847Z,10.20
2018-09-02T03:33:05.407Z,10.10
2018-09-02T03:35:33.821Z,10.10
2018-09-02T03:38:02.277Z,9.90
2018-09-02T03:40:30.760Z,9.90
2018-09-02T03:42:59.144Z,9.80
2018-09-02T03:45:27.541Z,9.90
2018-09-02T03:47:58.241Z,9.90
2018-09-02T03:50:26.698Z,9.90
2018-09-02T03:52:55.136Z,9.90
2018-09-02T03:55:23.592Z,9.90
2018-09-02T03:57:51.993Z,10.00
2018-09-02T04:00:20.381Z,10.00
2018-09-02T04:02:48.775Z,10.00
2018-09-02T04:05:17.212Z,9.90
2018-09-02T04:07:45.580Z,10.00
2018-09-02T04:10:13.981Z,9.90
2018-09-02T04:12:42.387Z,10.00
2018-09-02T04:15:10.811Z,10.10
2018-09-02T04:17:39.205Z,10.30
2018-09-02T04:20:08.013Z,10.40
2018-09-02T04:22:36.390Z,10.50
2018-09-02T04:25:05.005Z,10.50
2018-09-02T04:27:33.388Z,10.60
2018-09-02T04:30:01.792Z,10.60
2018-09-02T04:32:30.183Z,10.60
2018-09-02T04:34:58.608Z,10.70
2018-09-02T04:37:27.000Z,10.80
2018-09-02T04:39:55.417Z,10.70
2018-09-02T04:42:23.876Z,10.80
2018-09-02T04:44:52.382Z,10.80
2018-09-02T04:47:20.776Z,10.90
2018-09-02T04:49:49.181Z,10.80
2018-09-02T04:52:17.575Z,10.80
2018-09-02T04:54:46.065Z,10.80
2018-09-02T04:57:14.453Z,10.80
2018-09-02T04:59:42.852Z,10.80
2018-09-02T05:02:11.261Z,10.90
2018-09-02T05:04:39.737Z,10.90
2018-09-02T05:07:08.132Z,11.00
2018-09-02T05:09:36.578Z,11.00
2018-09-02T05:12:05.129Z,11.00
2018-09-02T05:14:33.572Z,11.00
2018-09-02T05:17:01.995Z,11.10
2018-09-02T05:19:30.417Z,11.20
2018-09-02T05:21:58.862Z,11.20
2018-09-02T05:24:27.323Z,11.30
2018-09-02T05:26:55.764Z,11.30
2018-09-02T05:29:24.181Z,11.40
2018-09-02T05:31:52.584Z,11.40
2018-09-02T05:34:20.985Z,11.50
2018-09-02T05:36:49.644Z,11.60
2018-09-02T05:39:17.979Z,11.60
2018-09-02T05:41:46.394Z,11.70
2018-09-02T05:44:14.836Z,11.80
2018-09-02T05:46:43.301Z,11.90
2018-09-02T05:49:11.688Z,12.00
2018-09-02T05:51:40.117Z,12.10
2018-09-02T05:54:08.525Z,12.20
2018-09-02T05:56:36.933Z,12.40
2018-09-02T05:59:05.445Z,12.50
2018-09-02T06:01:33.840Z,12.60
2018-09-02T06:04:02.239Z,12.70
2018-09-02T06:06:30.711Z,12.80
2018-09-02T06:08:59.123Z,12.80
2018-09-02T06:11:27.541Z,12.90
2018-09-02T06:13:55.945Z,13.00
2018-09-02T06:16:24.352Z,13.10
2018-09-02T06:18:52.829Z,13.20
2018-09-02T06:21:21.265Z,13.40
2018-09-02T06:23:49.742Z,13.50
2018-09-02T06:26:18.160Z,13.70
2018-09-02T06:28:46.677Z,13.90
2018-09-02T06:31:15.082Z,14.00
2018-09-02T06:33:43.502Z,14.00
2018-09-02T06:36:11.993Z,13.80
2018-09-02T06:38:40.376Z,13.90
2018-09-02T06:41:08.824Z,14.00
2018-09-02T06:43:37.245Z,14.00
2018-09-02T06:46:05.979Z,14.10
2018-09-02T06:48:34.473Z,14.20
2018-09-02T06:51:02.892Z,14.30
2018-09-02T06:53:31.304Z,14.40
2018-09-02T06:55:59.723Z,14.40
2018-09-02T06:58:28.194Z,14.50
2018-09-02T07:00:56.602Z,14.60
2018-09-02T07:03:25.149Z,14.90
2018-09-02T07:05:53.553Z,15.00
2018-09-02T07:08:21.986Z,15.10
2018-09-02T07:10:50.532Z,15.30
2018-09-02T07:13:19.060Z,15.30
2018-09-02T07:15:47.476Z,15.40
2018-09-02T07:18:15.977Z,15.40
2018-09-02T07:20:44.406Z,15.40
2018-09-02T07:23:12.841Z,15.50
2018-09-02T07:25:42.395Z,15.80
2018-09-02T07:28:10.801Z,16.10
2018-09-02T07:30:39.273Z,16.30
2018-09-02T07:33:07.683Z,16.50
2018-09-02T07:35:36.174Z,16.60
2018-09-02T07:38:04.639Z,16.70
2018-09-02T07:40:33.600Z,16.70
2018-09-02T07:43:02.009Z,16.80
2018-09-02T07:45:30.448Z,17.00
2018-09-02T07:47:58.919Z,17.00
2018-09-02T07:50:27.340Z,17.00
2018-09-02T07:52:55.781Z,17.20
2018-09-02T07:55:24.364Z,17.30
2018-09-02T07:57:52.801Z,17.30
2018-09-02T08:00:21.537Z,17.40
2018-09-02T08:02:50.225Z,17.50
2018-09-02T08:05:18.564Z,17.50
2018-09-02T08:07:46.989Z,17.60
2018-09-02T08:10:15.428Z,17.70
2018-09-02T08:12:43.939Z,17.70
2018-09-02T08:15:12.292Z,17.90
2018-09-02T08:17:40.721Z,18.00
2018-09-02T08:20:09.308Z,18.10
2018-09-02T08:22:38.131Z,18.30
2018-09-02T08:25:06.656Z,18.50
2018-09-02T08:27:35.085Z,18.60
2018-09-02T08:30:03.528Z,18.70
2018-09-02T08:32:31.922Z,18.90
2018-09-02T08:35:00.349Z,19.00
2018-09-02T08:37:28.745Z,19.20
2018-09-02T08:39:57.183Z,19.30
2018-09-02T08:42:25.584Z,19.40
2018-09-02T08:44:54.018Z,19.40
2018-09-02T08:47:22.437Z,19.60
2018-09-02T08:49:51.176Z,19.60
2018-09-02T08:52:19.596Z,19.70
2018-09-02T08:54:48.067Z,19.70
2018-09-02T08:57:16.516Z,19.80
2018-09-02T08:59:44.998Z,19.80
2018-09-02T09:02:13.416Z,19.90
2018-09-02T09:04:41.833Z,19.90
2018-09-02T09:07:10.273Z,20.00
2018-09-02T09:09:38.688Z,20.10
2018-09-02T09:12:07.152Z,20.20
2018-09-02T09:14:35.564Z,20.40
2018-09-02T09:17:04.099Z,20.40
2018-09-02T09:19:32.438Z,20.50
2018-09-02T09:22:00.837Z,20.50
2018-09-02T09:24:29.379Z,20.50
2018-09-02T09:26:57.817Z,20.60
2018-09-02T09:29:26.224Z,20.70
2018-09-02T09:31:54.621Z,20.70
2018-09-02T09:34:23.031Z,20.70
2018-09-02T09:36:51.433Z,20.90
2018-09-02T09:39:19.839Z,20.80
2018-09-02T09:41:48.244Z,20.90
2018-09-02T09:44:16.673Z,21.10
2018-09-02T09:46:45.136Z,21.30
2018-09-02T09:49:13.619Z,21.60
2018-09-02T09:51:42.410Z,21.70
2018-09-02T09:54:10.917Z,21.70
2018-09-02T09:56:39.349Z,22.00
2018-09-02T09:59:07.760Z,22.10
2018-09-02T10:01:36.228Z,22.10
2018-09-02T10:04:04.628Z,22.20
2018-09-02T10:06:33.048Z,23.10
2018-09-02T10:09:01.549Z,24.80
2018-09-02T10:11:29.944Z,25.90
2018-09-02T10:13:58.348Z,26.30
2018-09-02T10:16:26.764Z,26.50
2018-09-02T10:18:55.160Z,26.80
2018-09-02T10:21:23.731Z,27.10
2018-09-02T10:23:52.118Z,27.10
2018-09-02T10:26:20.564Z,27.30
2018-09-02T10:28:48.967Z,27.30
2018-09-02T10:31:17.476Z,27.60
2018-09-02T10:33:45.890Z,27.40
2018-09-02T10:36:14.363Z,27.00
2018-09-02T10:38:42.784Z,27.10
2018-09-02T10:41:11.559Z,27.40
2018-09-02T10:43:39.854Z,28.00
2018-09-02T10:46:08.260Z,27.60
2018-09-02T10:48:36.684Z,27.60
2018-09-02T10:51:05.209Z,27.80
2018-09-02T10:53:33.745Z,27.40
2018-09-02T10:56:02.144Z,27.80
2018-09-02T10:58:30.574Z,27.90
2018-09-02T11:00:59.079Z,28.00
2018-09-02T11:03:27.513Z,27.60
2018-09-02T11:05:55.925Z,27.10
2018-09-02T11:08:24.366Z,27.00
2018-09-02T11:10:53.032Z,26.90
2018-09-02T11:13:21.451Z,26.90
2018-09-02T11:15:49.895Z,27.70
2018-09-02T11:18:18.385Z,28.00
2018-09-02T11:20:46.850Z,28.10
2018-09-02T11:23:15.283Z,28.00
2018-09-02T11:25:43.813Z,27.90
2018-09-02T11:28:12.232Z,28.30
2018-09-02T11:30:40.636Z,28.50
2018-09-02T11:33:09.125Z,28.40
2018-09-02T11:35:37.835Z,28.20
2018-09-02T11:38:06.853Z,27.60
2018-09-02T11:40:35.286Z,27.80
2018-09-02T11:43:03.767Z,28.00
2018-09-02T11:45:32.269Z,27.70
2018-09-02T11:48:00.692Z,28.40
2018-09-02T11:50:29.127Z,28.10
2018-09-02T11:52:57.551Z,27.80
2018-09-02T11:55:25.978Z,27.10
2018-09-02T11:57:54.775Z,27.70
2018-09-02T12:00:23.189Z,27.90
2018-09-02T12:02:51.821Z,28.00
2018-09-02T12:05:20.254Z,28.40
2018-09-02T12:07:48.684Z,28.80
2018-09-02T12:10:17.108Z,28.90
2018-09-02T12:12:45.669Z,28.70
2018-09-02T12:15:14.201Z,28.60
2018-09-02T12:17:42.788Z,28.70
2018-09-02T12:20:11.193Z,28.70
2018-09-02T12:22:39.637Z,28.70
2018-09-02T12:25:08.060Z,28.50
2018-09-02T12:27:36.468Z,28.40
2018-09-02T12:30:04.993Z,28.30
2018-09-02T12:32:33.393Z,28.60
2018-09-02T12:35:01.846Z,28.70
2018-09-02T12:37:30.275Z,28.20
2018-09-02T12:39:58.692Z,27.60
2018-09-02T12:42:27.136Z,28.00
2018-09-02T12:44:55.614Z,28.40
2018-09-02T12:47:24.087Z,27.70
2018-09-02T12:49:52.512Z,28.20
2018-09-02T12:52:21.503Z,28.10
2018-09-02T12:54:50.257Z,27.90
2018-09-02T12:57:18.341Z,27.80
2018-09-02T12:59:46.872Z,27.90
2018-09-02T13:02:15.369Z,28.00
2018-09-02T13:04:43.852Z,27.70
2018-09-02T13:07:12.292Z,27.90
2018-09-02T13:09:40.698Z,27.80
2018-09-02T13:12:09.125Z,27.40
2018-09-02T13:14:37.564Z,27.20
2018-09-02T13:17:06.182Z,27.40
2018-09-02T13:19:34.617Z,27.50
2018-09-02T13:22:03.076Z,27.60
2018-09-02T13:24:31.510Z,27.10
2018-09-02T13:26:59.879Z,27.20
2018-09-02T13:29:28.409Z,27.00
2018-09-02T13:31:57.040Z,26.70
2018-09-02T13:34:25.299Z,26.60
2018-09-02T13:36:53.725Z,26.70
2018-09-02T13:39:22.142Z,26.40
2018-09-02T13:41:50.634Z,26.30
2018-09-02T13:44:19.079Z,26.20
2018-09-02T13:46:47.550Z,26.20
2018-09-02T13:49:16.042Z,26.30
2018-09-02T13:51:44.441Z,26.00
2018-09-02T13:54:12.948Z,26.00
2018-09-02T13:56:41.482Z,25.80
2018-09-02T13:59:09.932Z,25.70
2018-09-02T14:01:38.401Z,25.90
2018-09-02T14:04:06.928Z,25.80
2018-09-02T14:06:35.378Z,25.70
2018-09-02T14:09:04.548Z,25.70
2018-09-02T14:11:32.980Z,25.60
2018-09-02T14:14:01.421Z,25.40
2018-09-02T14:16:29.894Z,25.50
2018-09-02T14:18:58.309Z,25.70
2018-09-02T14:21:26.857Z,25.90
2018-09-02T14:23:55.365Z,25.70
2018-09-02T14:26:23.832Z,25.50
2018-09-02T14:28:52.241Z,25.40
2018-09-02T14:31:21.936Z,25.40
2018-09-02T14:33:50.396Z,25.40
2018-09-02T14:36:19.027Z,25.40
2018-09-02T14:38:47.458Z,25.30
2018-09-02T14:41:15.902Z,25.20
2018-09-02T14:43:44.401Z,25.10
2018-09-02T14:46:12.812Z,24.80
2018-09-02T14:48:41.273Z,25.00
2018-09-02T14:51:09.805Z,25.20
2018-09-02T14:53:38.216Z,25.30
2018-09-02T14:56:06.637Z,25.10
2018-09-02T14:58:35.357Z,24.60
2018-09-02T15:01:03.931Z,24.50
2018-09-02T15:03:32.339Z,24.40
2018-09-02T15:06:01.081Z,24.20
2018-09-02T15:08:29.606Z,24.40
2018-09-02T15:10:58.117Z,24.80
2018-09-02T15:13:26.581Z,25.00
2018-09-02T15:15:55.771Z,24.80
2018-09-02T15:18:24.428Z,24.60
2018-09-02T15:20:53.535Z,24.40
2018-09-02T15:23:21.964Z,24.20
2018-09-02T15:25:50.378Z,24.20
2018-09-02T15:28:18.810Z,24.50
2018-09-02T15:30:47.436Z,24.80
2018-09-02T15:33:16.317Z,24.90
2018-09-02T15:35:44.875Z,25.00
2018-09-02T15:38:13.465Z,25.00
2018-09-02T15:40:41.970Z,25.00
2018-09-02T15:43:10.360Z,25.00
2018-09-02T15:45:39.340Z,25.00
2018-09-02T15:48:07.780Z,24.80
2018-09-02T15:50:36.613Z,24.70
2018-09-02T15:53:05.301Z,24.70
2018-09-02T15:55:33.738Z,24.80
2018-09-02T15:58:02.233Z,24.60
2018-09-02T16:00:30.681Z,24.40
2018-09-02T16:02:59.059Z,24.20
2018-09-02T16:05:27.551Z,24.30
2018-09-02T16:07:56.072Z,24.20
2018-09-02T16:10:24.496Z,24.20
2018-09-02T16:12:52.925Z,24.20
2018-09-02T16:15:21.421Z,24.20
2018-09-02T16:17:49.796Z,24.10
2018-09-02T16:20:18.292Z,24.00
2018-09-02T16:22:46.633Z,24.00
2018-09-02T16:25:15.085Z,24.10
2018-09-02T16:27:43.492Z,24.00
2018-09-02T16:30:11.982Z,24.00
2018-09-02T16:32:40.566Z,24.00
2018-09-02T16:35:09.111Z,23.90
2018-09-02T16:37:37.631Z,23.90
2018-09-02T16:40:06.360Z,23.80
2018-09-02T16:42:34.850Z,23.70
2018-09-02T16:45:03.766Z,23.80
2018-09-02T16:47:32.185Z,23.70
2018-09-02T16:50:00.623Z,23.70
2018-09-02T16:52:29.087Z,23.70
2018-09-02T16:54:57.490Z,23.60
2018-09-02T16:57:25.898Z,23.60
2018-09-02T16:59:54.397Z,23.50
2018-09-02T17:02:22.926Z,23.60
2018-09-02T17:04:53.817Z,23.50
2018-09-02T17:07:22.322Z,23.40
2018-09-02T17:09:50.842Z,23.30
2018-09-02T17:12:19.362Z,23.20
2018-09-02T17:14:47.749Z,23.20
2018-09-02T17:17:16.144Z,23.10
2018-09-02T17:19:47.329Z,23.10
2018-09-02T17:22:15.868Z,23.00
2018-09-02T17:24:44.491Z,23.00
2018-09-02T17:27:13.387Z,23.00
2018-09-02T17:29:41.795Z,22.90
2018-09-02T17:32:12.895Z,22.80
2018-09-02T17:34:41.321Z,22.80
2018-09-02T17:37:09.890Z,22.70
2018-09-02T17:39:38.322Z,22.60
2018-09-02T17:42:07.077Z,22.60
2018-09-02T17:44:35.590Z,22.60
2018-09-02T17:47:04.078Z,22.50
2018-09-02T17:49:32.495Z,22.50
2018-09-02T17:52:00.978Z,22.50
2018-09-02T17:54:30.226Z,22.50
2018-09-02T17:56:58.676Z,22.50
2018-09-02T17:59:27.192Z,22.50
2018-09-02T18:01:55.788Z,22.50
2018-09-02T18:04:24.316Z,22.50
2018-09-02T18:06:53.564Z,22.50
2018-09-02T18:09:22.211Z,22.50
2018-09-02T18:11:50.884Z,22.40
2018-09-02T18:14:19.333Z,22.30
2018-09-02T18:16:47.861Z,22.30
2018-09-02T18:19:16.282Z,22.30
2018-09-02T18:21:44.839Z,22.30
2018-09-02T18:24:13.298Z,22.20
2018-09-02T18:26:41.705Z,22.20
2018-09-02T18:29:10.505Z,22.10
2018-09-02T18:31:38.990Z,22.10
2018-09-02T18:34:07.445Z,22.10
2018-09-02T18:36:36.456Z,22.10
2018-09-02T18:39:08.871Z,22.00
2018-09-02T18:41:38.033Z,22.00
2018-09-02T18:44:06.532Z,22.00
2018-09-02T18:46:35.083Z,21.90
2018-09-02T18:49:04.804Z,21.90
2018-09-02T18:51:33.226Z,21.80
2018-09-02T18:54:02.046Z,21.70
2018-09-02T18:56:30.955Z,21.60
2018-09-02T18:58:59.589Z,21.60
2018-09-02T19:01:28.634Z,21.60
2018-09-02T19:03:57.624Z,21.50
2018-09-02T19:06:26.500Z,21.50
2018-09-02T19:08:54.963Z,21.40
2018-09-02T19:11:23.682Z,21.40
2018-09-02T19:13:52.569Z,21.40
2018-09-02T19:16:21.356Z,21.30
2018-09-02T19:18:50.327Z,21.30
2018-09-02T19:21:19.193Z,21.30
2018-09-02T19:23:47.690Z,21.20
2018-09-02T19:26:16.503Z,21.20
2018-09-02T19:28:45.294Z,21.20
2018-09-02T19:31:14.080Z,21.20
2018-09-02T19:33:42.868Z,21.20
2018-09-02T19:36:11.581Z,21.20
2018-09-02T19:38:40.388Z,21.10
2018-09-02T19:41:08.944Z,21.10
2018-09-02T19:43:37.713Z,21.00
2018-09-02T19:46:06.228Z,21.00
2018-09-02T19:48:34.673Z,21.00
2018-09-02T19:51:03.352Z,21.00
2018-09-02T19:53:32.146Z,20.90
2018-09-02T19:56:00.901Z,21.00
2018-09-02T19:58:29.514Z,21.00
2018-09-02T20:00:57.917Z,21.00
2018-09-02T20:03:26.379Z,21.00
2018-09-02T20:05:54.932Z,20.90
2018-09-02T20:08:23.312Z,20.80
2018-09-02T20:10:51.955Z,20.80
2018-09-02T20:13:20.598Z,20.80
2018-09-02T20:15:49.024Z,20.70
2018-09-02T20:18:17.565Z,20.60
2018-09-02T20:20:46.023Z,20.60
2018-09-02T20:23:14.432Z,20.60
2018-09-02T20:25:43.208Z,20.50
2018-09-02T20:28:11.716Z,20.50
2018-09-02T20:30:40.149Z,20.40
2018-09-02T20:33:08.836Z,20.40
2018-09-02T20:35:37.520Z,20.40
2018-09-02T20:38:06.020Z,20.40
2018-09-02T20:40:34.464Z,20.40
2018-09-02T20:43:02.844Z,20.30
2018-09-02T20:45:31.516Z,20.30
2018-09-02T20:48:00.022Z,20.20
2018-09-02T20:50:29.139Z,20.20
2018-09-02T20:52:58.405Z,20.20
2018-09-02T20:55:27.092Z,20.20
2018-09-02T20:57:55.607Z,20.20
2018-09-02T21:00:24.080Z,20.20
2018-09-02T21:02:52.649Z,20.20
2018-09-02T21:05:21.322Z,20.20
2018-09-02T21:07:49.716Z,20.20
2018-09-02T21:10:18.136Z,20.20
2018-09-02T21:12:46.872Z,20.20
2018-09-02T21:15:15.487Z,20.10
2018-09-02T21:17:43.883Z,20.10
2018-09-02T21:20:12.311Z,20.10
2018-09-02T21:22:40.745Z,20.10
2018-09-02T21:25:09.450Z,20.10
2018-09-02T21:27:37.915Z,20.10
2018-09-02T21:30:06.667Z,20.00
2018-09-02T21:32:35.102Z,19.90
2018-09-02T21:35:03.537Z,19.90
2018-09-02T21:37:31.956Z,19.90
2018-09-02T21:40:00.333Z,19.90
2018-09-02T21:42:28.963Z,19.80
2018-09-02T21:44:57.466Z,19.80
2018-09-02T21:47:25.849Z,19.80
2018-09-02T21:49:54.305Z,19.80
2018-09-02T21:52:22.701Z,19.70
2018-09-02T21:54:51.132Z,19.70
2018-09-02T21:57:19.513Z,19.60
2018-09-02T21:59:48.170Z,19.60
2018-09-02T22:02:16.564Z,19.50
2018-09-02T22:04:44.926Z,19.50
2018-09-02T22:07:13.351Z,19.50
2018-09-02T22:09:41.726Z,19.40
2018-09-02T22:12:10.137Z,19.40
2018-09-02T22:14:38.585Z,19.40
2018-09-02T22:17:06.944Z,19.40
2018-09-02T22:19:35.562Z,19.40
2018-09-02T22:22:04.049Z,19.40
2018-09-02T22:24:32.416Z,19.40
2018-09-02T22:27:00.939Z,19.40
2018-09-02T22:29:29.367Z,19.50
2018-09-02T22:31:57.748Z,19.50
2018-09-02T22:34:26.152Z,19.40
2018-09-02T22:36:54.542Z,19.40
2018-09-02T22:39:22.937Z,19.40
2018-09-02T22:41:51.429Z,19.40
2018-09-02T22:44:19.857Z,19.40
2018-09-02T22:46:48.248Z,19.40
2018-09-02T22:49:16.632Z,19.40
2018-09-02T22:51:45.053Z,19.30
2018-09-02T22:54:13.434Z,19.30
2018-09-02T22:56:41.860Z,19.30
2018-09-02T22:59:10.263Z,19.30
2018-09-02T23:01:38.720Z,19.20
2018-09-02T23:04:07.297Z,19.20
2018-09-02T23:06:35.675Z,19.20
2018-09-02T23:09:05.721Z,19.10
2018-09-02T23:11:34.151Z,19.10
2018-09-02T23:14:02.556Z,19.10
2018-09-02T23:16:31.560Z,19.00
2018-09-02T23:18:59.976Z,19.00
2018-09-02T23:21:28.363Z,19.00
2018-09-02T23:23:56.787Z,18.90
2018-09-02T23:26:25.220Z,18.90
2018-09-02T23:28:53.652Z,18.80
2018-09-02T23:31:22.090Z,18.80
2018-09-02T23:33:50.705Z,18.70
2018-09-02T23:36:19.369Z,18.80
2018-09-02T23:38:47.889Z,18.80
2018-09-02T23:41:16.284Z,18.90
2018-09-02T23:43:45.049Z,18.80
2018-09-02T23:46:13.456Z,18.80
2018-09-02T23:48:41.844Z,18.80
2018-09-02T23:51:10.278Z,18.80
2018-09-02T23:53:38.671Z,18.80
2018-09-02T23:56:07.441Z,18.90
2018-09-02T23:58:35.824Z,18.80
